Relevés horaires Koksijde (Belgique)


Relevés horaires à Koksijde - Vendredi 26 Mai 2023
Heure UTC1 Température [°C] Vent [km/h] Hum. [%] Pres.4 [hPa] Visi. [Km] Nébu. [octa] Préc.5 [mm] Cond.
2m. Res. Ros. Dir.2 Vit. Moy. Raf.3
23:00 11.7 10.8 7.6 NE 9.3 -- 14.8 76 1029(0.0/3h) 17 -- -- --
22:00 12.3 11.2 8.8 NE 11.1 -- 18.5 79 1029(0.0/3h) 14 -- -- --
21:00 12.7 11.5 9.5 NE 13.0 -- 24.1 81 1029.2(0.0/3h) 13 -- -- --
20:00 12.9 11.7 9.5 NE 13.0 -- 24.1 80 1029(-0.3/3h) 12 -- -- --
19:00 13.2 11.9 9.6 NNE 14.8 -- 24.1 79 1029.2(-0.3/3h) 13 -- -- --
18:00 13.7 12.5 9.4 NNE 14.8 -- 25.9 75 1029(-0.7/3h) 14 -- -- --
17:00 14.3 13.2 9.3 NNE 14.8 -- 24.1 72 1029.4(-0.7/3h) 15 -- -- --
16:00 15.4 14.4 9.3 NNE 16.7 -- 25.9 67 1029.5(-0.7/3h) 13 -- -- --
15:00 14.7 13.4 8.7 NNE 18.5 -- 25.9 67 1029.9(-0.5/3h) 20 1/8 -- --
14:00 15.8 14.8 9.6 NNE 18.5 -- 24.1 67 1030.2(-0.5/3h) 20 0/8 -- --
13:00 14.8 13.7 8.5 NNE 16.7 -- 22.2 66 1030.2(-0.5/3h) 20 0/8 -- --
12:00 14.9 14 8.2 NNE 14.8 -- 22.2 64 1030.4(-0.3/3h) 20 0/8 -- --
11:00 14.8 13.9 8.3 NNE 14.8 -- 18.5 65 1030.5(-0.1/3h) 20 0/8 -- --
10:00 14.3 13.4 7.4 NNE 13.0 -- 18.5 63 1030.7(0.0/3h) 20 1/8 -- --
09:00 13.6 12.8 7.4 ENE 11.1 -- 22.2 66 1030.7(0.4/3h) 20 1/8 -- --
08:00 12.4 11.3 6.9 ENE 11.1 -- 20.4 69 1030.7(0.8/3h) 20 1/8 -- --
07:00 11.3 9.8 6.5 ENE 13.0 -- 22.2 72 1030.7(1.0/3h) 20 1/8 -- --
06:00 10.2 8.4 6.5 ENE 13.0 -- 18.5 78 1030.4(1.0/3h) 15 1/8 -- --
05:00 9.3 8.3 7.1 ENE 7.4 -- 11.1 86 1029.9(0.5/3h) 14 -- -- --
04:00 9.1 8.1 7.1 NE 7.4 -- 13.0 87 1029.7(0.3/3h) 11 -- -- --
03:00 9.6 8.7 7.1 NE 7.4 -- 11.1 84 1029.4(0.1/3h) 12 -- -- --
02:00 9.8 8.9 7.1 NE 7.4 -- 11.1 83 1029.2(0.1/3h) 13 -- -- --
01:00 10.4 9.6 7.3 NE 7.4 -- 11.1 81 1029.2(0.0/3h) 12 -- -- --
00:00 11.1 10.4 8.0 NE 7.4 -- 18.5 81 1029.2(0.0/3h) 12 -- -- --

1 Coordinated Universal Time. Actuellement il est 12:00 locale et 10:00 UTC.

2 Le vent souffle depuis la direction indiquée vers la direction oposée.

3 Les rafales max. sont disponible 40 min après l'heure du relevé.

4 Pour les stations d'altitude (plus de 600m) le géopotentiel du niveau le plus proche de la pression obligatoire est indiqué.

5 Les stations disposant d'un diffuseur peuvent indiquer "trace". Cela signifie que des précipitations ont touchés le sol mais que la quantité est inférieure à 0.1 mm.

Récapitulatif de la journée
Température [°C] Vent [km/h] Ensoleillement4 [h] Precipitations totale5 [mm] Pression [Hpa]
Min1 Max.2 Moy.3 Max. Min Max.
9.0 15.9 0 25.9 0 h 0 min 0 1029.0 1030.7

1 Température minimale relevée entre 18:00 UTC la veille et 18:00 UTC le jour donné.

2 Température maximale relevée entre 06:00 UTC le jour donné et 06:00 UTC le lendemain.

3 Vent moyen de la journée basé sur les relevés horaires.

4 Ensoleillement en heures relevé entre 06:00 UTC la veille et 06:00 UTC le jour donné.

5 Précipitations totales tombées entre 06:00 UTC la jour donné et 06:00 UTC le lendemain.

Graphiques horaires